createdAt,value
2023-05-24T00:02:18.825Z,85.93
2023-05-24T00:04:37.272Z,85.25
2023-05-24T00:06:54.453Z,84.92
2023-05-24T00:09:12.030Z,84.39
2023-05-24T00:11:29.822Z,85.27
2023-05-24T00:13:49.278Z,85.29
2023-05-24T00:16:06.731Z,85.51
2023-05-24T00:18:24.503Z,85.75
2023-05-24T00:20:42.225Z,85.74
2023-05-24T00:23:00.182Z,85.02
2023-05-24T00:25:17.464Z,84.32
2023-05-24T00:27:34.700Z,85.34
2023-05-24T00:29:51.856Z,85.78
2023-05-24T00:32:12.041Z,85.33
2023-05-24T00:34:29.143Z,84.74
2023-05-24T00:36:49.193Z,85.72
2023-05-24T00:39:06.615Z,86.11
2023-05-24T00:41:24.246Z,85.77
2023-05-24T00:43:42.050Z,86.16
2023-05-24T00:46:00.516Z,85.00
2023-05-24T00:48:20.772Z,85.79
2023-05-24T00:50:38.444Z,85.61
2023-05-24T00:52:55.541Z,85.86
2023-05-24T00:55:13.302Z,85.18
2023-05-24T00:57:31.022Z,85.12
2023-05-24T00:59:48.314Z,85.74
2023-05-24T01:02:06.624Z,85.06
2023-05-24T01:04:23.991Z,84.64
2023-05-24T01:06:41.407Z,84.97
2023-05-24T01:08:59.234Z,84.77
2023-05-24T01:11:17.598Z,85.82
2023-05-24T01:13:34.949Z,85.99
2023-05-24T01:15:53.466Z,85.30
2023-05-24T01:18:11.073Z,85.18
2023-05-24T01:20:28.205Z,85.21
2023-05-24T01:22:46.584Z,85.50
2023-05-24T01:25:03.804Z,85.00
2023-05-24T01:27:20.840Z,85.32
2023-05-24T01:29:38.284Z,84.88
2023-05-24T01:31:55.418Z,85.30
2023-05-24T01:34:12.754Z,86.27
2023-05-24T01:36:31.601Z,85.82
2023-05-24T01:38:50.264Z,85.68
2023-05-24T01:41:07.431Z,85.55
2023-05-24T01:43:27.395Z,85.52
2023-05-24T01:45:44.409Z,85.91
2023-05-24T01:48:01.933Z,85.94
2023-05-24T01:50:19.483Z,86.47
2023-05-24T01:52:36.903Z,85.63
2023-05-24T01:54:53.852Z,85.87
2023-05-24T01:57:11.536Z,85.95
2023-05-24T01:59:28.874Z,86.33
2023-05-24T02:01:47.416Z,86.19
2023-05-24T02:04:04.836Z,85.78
2023-05-24T02:06:22.220Z,86.09
2023-05-24T02:08:39.606Z,86.29
2023-05-24T02:10:56.897Z,86.38
2023-05-24T02:13:14.194Z,86.22
2023-05-24T02:15:31.576Z,86.24
2023-05-24T02:17:48.942Z,86.17
2023-05-24T02:20:06.232Z,85.60
2023-05-24T02:22:23.235Z,86.26
2023-05-24T02:24:40.891Z,86.15
2023-05-24T02:26:58.268Z,85.95
2023-05-24T02:29:16.032Z,86.29
2023-05-24T02:31:33.528Z,86.06
2023-05-24T02:33:50.931Z,86.16
2023-05-24T02:36:08.269Z,86.09
2023-05-24T02:38:26.567Z,86.45
2023-05-24T02:40:44.164Z,86.50
2023-05-24T02:43:01.614Z,86.26
2023-05-24T02:45:18.989Z,86.01
2023-05-24T02:47:36.302Z,85.79
2023-05-24T02:49:53.598Z,85.83
2023-05-24T02:52:11.934Z,86.04
2023-05-24T02:54:29.250Z,85.89
2023-05-24T02:56:46.557Z,85.87
2023-05-24T02:59:04.247Z,85.60
2023-05-24T03:01:22.675Z,85.42
2023-05-24T03:03:40.178Z,85.84
2023-05-24T03:05:57.513Z,85.58
2023-05-24T03:08:14.379Z,85.45
2023-05-24T03:10:31.687Z,86.24
2023-05-24T03:12:49.063Z,86.37
2023-05-24T03:15:05.951Z,86.35
2023-05-24T03:17:22.792Z,86.37
2023-05-24T03:19:39.727Z,86.29
2023-05-24T03:21:57.098Z,85.77
2023-05-24T03:24:13.968Z,85.47
2023-05-24T03:26:30.902Z,85.14
2023-05-24T03:28:48.048Z,85.28
2023-05-24T03:31:04.961Z,85.63
2023-05-24T03:33:22.027Z,85.92
2023-05-24T03:35:38.919Z,85.87
2023-05-24T03:37:55.817Z,86.15
2023-05-24T03:40:12.734Z,86.20
2023-05-24T03:42:29.588Z,86.04
2023-05-24T03:44:46.888Z,86.03
2023-05-24T03:47:03.835Z,86.11
2023-05-24T03:49:20.793Z,86.32
2023-05-24T03:51:37.724Z,86.17
2023-05-24T03:53:54.648Z,85.76
2023-05-24T03:56:11.537Z,86.13
2023-05-24T03:58:28.502Z,86.08
2023-05-24T04:00:45.931Z,86.57
2023-05-24T04:03:02.956Z,85.98
2023-05-24T04:05:19.890Z,86.12
2023-05-24T04:07:36.876Z,86.34
2023-05-24T04:09:53.773Z,86.11
2023-05-24T04:12:10.655Z,86.36
2023-05-24T04:14:27.540Z,86.37
2023-05-24T04:16:44.507Z,86.83
2023-05-24T04:19:01.495Z,86.18
2023-05-24T04:21:18.417Z,86.25
2023-05-24T04:23:35.323Z,86.49
2023-05-24T04:25:52.252Z,86.31
2023-05-24T04:28:09.129Z,85.90
2023-05-24T04:30:26.051Z,85.81
2023-05-24T04:32:42.993Z,85.90
2023-05-24T04:34:59.931Z,85.80
2023-05-24T04:37:16.829Z,85.69
2023-05-24T04:39:33.755Z,85.93
2023-05-24T04:41:50.683Z,86.06
2023-05-24T04:44:07.583Z,86.27
2023-05-24T04:46:25.015Z,85.99
2023-05-24T04:48:41.950Z,86.23
2023-05-24T04:50:58.912Z,86.30
2023-05-24T04:53:15.828Z,86.69
2023-05-24T04:55:32.728Z,86.10
2023-05-24T04:57:49.657Z,85.57
2023-05-24T05:00:07.038Z,85.27
2023-05-24T05:02:24.574Z,85.14
2023-05-24T05:04:41.552Z,85.90
2023-05-24T05:06:58.949Z,85.86
2023-05-24T05:09:15.832Z,86.14
2023-05-24T05:11:32.794Z,85.85
2023-05-24T05:13:49.708Z,85.34
2023-05-24T05:16:06.691Z,85.01
2023-05-24T05:18:23.615Z,84.57
2023-05-24T05:20:41.304Z,84.62
2023-05-24T05:22:58.437Z,84.10
2023-05-24T05:25:15.833Z,83.50
2023-05-24T05:27:32.768Z,83.30
2023-05-24T05:29:49.704Z,83.29
2023-05-24T05:32:06.741Z,83.22
2023-05-24T05:34:24.186Z,82.72
2023-05-24T05:36:41.599Z,82.34
2023-05-24T05:38:58.579Z,82.14
2023-05-24T05:41:15.454Z,83.34
2023-05-24T05:43:32.329Z,82.71
2023-05-24T05:45:49.820Z,81.96
2023-05-24T05:48:06.795Z,82.09
2023-05-24T05:50:23.706Z,81.98
2023-05-24T05:52:40.628Z,83.27
2023-05-24T05:54:57.602Z,83.25
2023-05-24T05:57:14.542Z,81.09
2023-05-24T05:59:31.421Z,81.92
2023-05-24T06:01:48.322Z,80.55
2023-05-24T06:04:05.296Z,79.45
2023-05-24T06:06:22.291Z,79.04
2023-05-24T06:08:39.184Z,78.40
2023-05-24T06:10:56.090Z,78.33
2023-05-24T06:13:13.464Z,77.09
2023-05-24T06:15:30.380Z,77.81
2023-05-24T06:17:47.355Z,78.32
2023-05-24T06:20:04.260Z,78.52
2023-05-24T06:22:21.191Z,77.54
2023-05-24T06:24:38.146Z,76.69
2023-05-24T06:26:55.512Z,76.47
2023-05-24T06:29:12.425Z,75.56
2023-05-24T06:31:29.410Z,74.41
2023-05-24T06:33:52.521Z,73.64
2023-05-24T06:36:13.688Z,72.56
2023-05-24T06:38:30.567Z,70.11
2023-05-24T06:40:47.505Z,70.05
2023-05-24T06:43:04.450Z,69.39
2023-05-24T06:45:21.372Z,67.92
2023-05-24T06:47:40.373Z,68.82
2023-05-24T06:49:57.302Z,67.84
2023-05-24T06:52:14.256Z,66.45
2023-05-24T06:54:31.342Z,66.57
2023-05-24T06:56:48.227Z,65.23
2023-05-24T06:59:05.149Z,65.75
2023-05-24T07:01:22.124Z,65.79
2023-05-24T07:03:39.118Z,64.49
2023-05-24T07:05:56.036Z,64.25
2023-05-24T07:08:12.976Z,63.11
2023-05-24T07:10:29.954Z,64.06
2023-05-24T07:12:46.837Z,63.75
2023-05-24T07:15:03.762Z,64.10
2023-05-24T07:17:20.708Z,63.02
2023-05-24T07:19:38.217Z,60.69
2023-05-24T07:21:55.137Z,61.54
2023-05-24T07:24:13.090Z,60.08
2023-05-24T07:26:31.654Z,60.98
2023-05-24T07:28:49.046Z,59.68
2023-05-24T07:31:05.963Z,61.32
2023-05-24T07:33:22.890Z,59.52
2023-05-24T07:35:39.945Z,57.80
2023-05-24T07:37:56.923Z,57.89
2023-05-24T07:40:13.837Z,57.78
2023-05-24T07:42:30.735Z,57.16
2023-05-24T07:44:48.156Z,57.37
2023-05-24T07:47:05.062Z,59.60
2023-05-24T07:49:22.436Z,55.37
2023-05-24T07:51:39.323Z,52.54
2023-05-24T07:53:56.219Z,53.63
2023-05-24T07:56:13.164Z,53.41
2023-05-24T07:58:30.108Z,52.85
2023-05-24T08:00:47.057Z,51.94
2023-05-24T08:03:04.002Z,51.28
2023-05-24T08:05:21.012Z,52.36
2023-05-24T08:07:37.911Z,52.52
2023-05-24T08:09:54.842Z,51.35
2023-05-24T08:12:11.732Z,50.54
2023-05-24T08:14:28.692Z,51.81
2023-05-24T08:16:45.714Z,50.10
2023-05-24T08:19:02.644Z,50.75
2023-05-24T08:21:19.550Z,49.89
2023-05-24T08:23:36.498Z,51.01
2023-05-24T08:25:53.461Z,52.75
2023-05-24T08:28:10.442Z,51.39
2023-05-24T08:30:27.689Z,49.70
2023-05-24T08:32:44.693Z,49.89
2023-05-24T08:35:18.230Z,50.09
2023-05-24T08:37:36.897Z,49.72
2023-05-24T08:39:53.847Z,50.38
2023-05-24T08:42:10.865Z,51.07
2023-05-24T08:44:27.834Z,50.45
2023-05-24T08:46:44.801Z,51.20
2023-05-24T08:49:01.830Z,50.89
2023-05-24T08:51:18.781Z,50.53
2023-05-24T08:53:35.705Z,49.24
2023-05-24T08:55:52.631Z,51.39
2023-05-24T08:58:09.568Z,50.40
2023-05-24T09:00:26.502Z,50.87
2023-05-24T09:02:43.475Z,51.18
2023-05-24T09:05:00.422Z,51.29
2023-05-24T09:07:17.786Z,51.49
2023-05-24T09:09:34.810Z,50.73
2023-05-24T09:11:51.695Z,51.29
2023-05-24T09:14:08.588Z,49.72
2023-05-24T09:16:25.555Z,48.88
2023-05-24T09:18:42.548Z,49.76
2023-05-24T09:20:59.519Z,50.30
2023-05-24T09:23:16.416Z,49.91
2023-05-24T09:25:33.346Z,48.61
2023-05-24T09:27:50.248Z,48.49
2023-05-24T09:30:07.176Z,47.75
2023-05-24T09:32:24.144Z,48.29
2023-05-24T09:34:41.056Z,47.31
2023-05-24T09:36:57.993Z,48.88
2023-05-24T09:39:14.902Z,48.47
2023-05-24T09:41:31.805Z,48.42
2023-05-24T09:43:48.729Z,49.05
2023-05-24T09:46:05.658Z,47.96
2023-05-24T09:48:23.043Z,49.67
2023-05-24T09:50:39.994Z,49.62
2023-05-24T09:52:56.901Z,48.45
2023-05-24T09:55:13.880Z,49.14
2023-05-24T09:57:30.874Z,49.00
2023-05-24T09:59:47.830Z,50.04
2023-05-24T10:02:04.697Z,48.44
2023-05-24T10:04:21.750Z,48.62
2023-05-24T10:06:39.202Z,48.38
2023-05-24T10:08:56.103Z,48.16
2023-05-24T10:11:12.986Z,45.91
2023-05-24T10:13:30.453Z,47.93
2023-05-24T10:15:47.490Z,44.80
2023-05-24T10:18:04.486Z,47.80
2023-05-24T10:20:21.551Z,44.54
2023-05-24T10:22:39.015Z,45.74
2023-05-24T10:24:55.895Z,43.66
2023-05-24T10:27:12.798Z,47.92
2023-05-24T10:29:29.739Z,45.90
2023-05-24T10:31:47.303Z,43.67
2023-05-24T10:34:08.356Z,42.83
2023-05-24T10:36:25.945Z,43.62
2023-05-24T10:38:42.883Z,43.68
2023-05-24T10:40:59.848Z,45.12
2023-05-24T10:43:16.780Z,44.80
2023-05-24T10:45:33.698Z,44.04
2023-05-24T10:47:50.602Z,44.40
2023-05-24T10:50:07.554Z,43.83
2023-05-24T10:52:24.440Z,43.23
2023-05-24T10:54:49.640Z,46.43
2023-05-24T10:57:16.630Z,42.63
2023-05-24T10:59:33.565Z,43.11
2023-05-24T11:01:50.621Z,42.19
2023-05-24T11:04:07.565Z,45.07
2023-05-24T11:06:24.452Z,42.89
2023-05-24T11:08:41.904Z,44.55
2023-05-24T11:11:05.707Z,41.87
2023-05-24T11:13:28.660Z,45.38
2023-05-24T11:15:46.054Z,43.75
2023-05-24T11:18:03.029Z,44.63
2023-05-24T11:20:20.460Z,44.62
2023-05-24T11:22:37.390Z,43.15
2023-05-24T11:24:54.264Z,44.58
2023-05-24T11:27:11.323Z,44.25
2023-05-24T11:29:28.811Z,45.56
2023-05-24T11:31:45.847Z,44.29
2023-05-24T11:34:03.427Z,43.43
2023-05-24T11:36:20.403Z,42.12
2023-05-24T11:38:37.355Z,43.76
2023-05-24T11:40:54.288Z,44.63
2023-05-24T11:43:11.207Z,44.54
2023-05-24T11:45:28.113Z,45.43
2023-05-24T11:47:45.054Z,44.37
2023-05-24T11:50:02.515Z,45.08
2023-05-24T11:52:19.428Z,47.66
2023-05-24T11:54:36.342Z,44.88
2023-05-24T11:56:53.671Z,45.77
2023-05-24T11:59:10.602Z,46.81
2023-05-24T12:01:27.619Z,45.79
2023-05-24T12:03:44.807Z,43.99
2023-05-24T12:06:01.884Z,45.54
2023-05-24T12:08:18.800Z,46.10
2023-05-24T12:10:35.717Z,42.96
2023-05-24T12:12:52.754Z,42.92
2023-05-24T12:15:09.649Z,45.31
2023-05-24T12:17:26.629Z,46.64
2023-05-24T12:19:43.673Z,44.81
2023-05-24T12:22:00.731Z,44.05
2023-05-24T12:24:17.645Z,43.63
2023-05-24T12:26:34.586Z,46.31
2023-05-24T12:28:51.939Z,45.82
2023-05-24T12:31:08.924Z,44.60
2023-05-24T12:33:25.835Z,44.39
2023-05-24T12:35:42.730Z,44.42
2023-05-24T12:37:59.592Z,45.25
2023-05-24T12:40:16.534Z,43.78
2023-05-24T12:42:33.446Z,43.66
2023-05-24T12:44:50.398Z,46.20
2023-05-24T12:47:07.678Z,46.95
2023-05-24T12:49:24.751Z,45.06
2023-05-24T12:51:41.788Z,47.48
2023-05-24T12:53:58.681Z,46.87
2023-05-24T12:56:15.592Z,45.18
2023-05-24T12:58:32.503Z,47.49
2023-05-24T13:00:49.419Z,45.79
2023-05-24T13:03:06.895Z,47.19
2023-05-24T13:05:23.849Z,47.57
2023-05-24T13:07:40.864Z,47.66
2023-05-24T13:09:57.952Z,48.57
2023-05-24T13:12:15.328Z,47.57
2023-05-24T13:14:32.246Z,48.92
2023-05-24T13:16:49.303Z,49.77
2023-05-24T13:19:06.403Z,48.49
2023-05-24T13:21:23.372Z,46.86
2023-05-24T13:23:40.362Z,49.00
2023-05-24T13:25:57.318Z,48.29
2023-05-24T13:28:14.256Z,49.67
2023-05-24T13:30:31.155Z,47.61
2023-05-24T13:32:51.376Z,48.44
2023-05-24T13:35:08.756Z,49.22
2023-05-24T13:37:25.721Z,48.46
2023-05-24T13:39:42.627Z,48.00
2023-05-24T13:41:59.574Z,48.32
2023-05-24T13:44:16.612Z,48.44
2023-05-24T13:46:33.578Z,48.96
2023-05-24T13:48:50.518Z,50.28
2023-05-24T13:51:07.447Z,50.13
2023-05-24T13:53:24.390Z,50.07
2023-05-24T13:55:41.272Z,49.95
2023-05-24T13:57:58.189Z,50.06
2023-05-24T14:00:15.077Z,51.50
2023-05-24T14:02:32.062Z,50.96
2023-05-24T14:04:49.386Z,51.19
2023-05-24T14:07:06.380Z,50.01
2023-05-24T14:09:23.795Z,50.20
2023-05-24T14:11:41.207Z,50.02
2023-05-24T14:16:18.026Z,49.51
2023-05-24T14:18:35.040Z,49.85
2023-05-24T14:20:52.023Z,49.58
2023-05-24T14:23:08.938Z,49.63
2023-05-24T14:25:26.347Z,48.29
2023-05-24T14:27:43.815Z,49.92
2023-05-24T14:30:00.836Z,48.86
2023-05-24T14:32:17.914Z,50.85
2023-05-24T14:34:34.872Z,50.48
2023-05-24T14:36:51.792Z,53.24
2023-05-24T14:39:08.725Z,51.32
2023-05-24T14:41:25.679Z,51.58
2023-05-24T14:43:42.643Z,48.71
2023-05-24T14:45:59.616Z,50.39
2023-05-24T14:48:16.654Z,49.63
2023-05-24T14:50:33.599Z,49.10
2023-05-24T14:52:50.886Z,50.80
2023-05-24T14:55:08.590Z,48.54
2023-05-24T14:57:25.509Z,48.16
2023-05-24T14:59:42.427Z,48.56
2023-05-24T15:01:59.356Z,48.90
2023-05-24T15:04:16.270Z,48.45
2023-05-24T15:06:33.201Z,48.12
2023-05-24T15:08:50.569Z,49.68
2023-05-24T15:11:07.466Z,50.19
2023-05-24T15:13:24.355Z,49.32
2023-05-24T15:15:41.302Z,50.18
2023-05-24T15:17:58.244Z,50.35
2023-05-24T15:20:15.231Z,49.87
2023-05-24T15:22:32.126Z,50.38
2023-05-24T15:24:49.064Z,50.47
2023-05-24T15:27:05.992Z,50.28
2023-05-24T15:29:22.912Z,50.30
2023-05-24T15:31:39.814Z,51.46
2023-05-24T15:33:56.778Z,52.96
2023-05-24T15:36:13.685Z,50.67
2023-05-24T15:38:30.584Z,52.38
2023-05-24T15:40:47.500Z,52.11
2023-05-24T15:43:04.881Z,53.43
2023-05-24T15:45:21.770Z,52.47
2023-05-24T15:47:38.733Z,54.07
2023-05-24T15:49:55.642Z,53.67
2023-05-24T15:52:12.621Z,52.37
2023-05-24T15:54:29.500Z,53.88
2023-05-24T15:56:46.510Z,54.53
2023-05-24T15:59:03.892Z,56.01
2023-05-24T16:01:20.917Z,55.09
2023-05-24T16:03:38.274Z,54.69
2023-05-24T16:05:55.372Z,55.92
2023-05-24T16:08:12.307Z,55.82
2023-05-24T16:10:29.242Z,55.30
2023-05-24T16:12:46.138Z,54.60
2023-05-24T16:15:03.075Z,55.05
2023-05-24T16:17:20.083Z,55.90
2023-05-24T16:19:37.124Z,54.21
2023-05-24T16:21:54.099Z,53.74
2023-05-24T16:24:11.575Z,53.65
2023-05-24T16:26:28.551Z,54.39
2023-05-24T16:28:45.532Z,53.94
2023-05-24T16:31:02.470Z,54.52
2023-05-24T16:33:19.402Z,54.01
2023-05-24T16:35:36.351Z,54.25
2023-05-24T16:37:53.314Z,55.63
2023-05-24T16:40:10.259Z,55.02
2023-05-24T16:42:27.178Z,53.28
2023-05-24T16:44:44.121Z,54.65
2023-05-24T16:47:01.100Z,54.13
2023-05-24T16:49:18.464Z,54.33
2023-05-24T16:51:35.397Z,54.45
2023-05-24T16:53:52.328Z,54.57
2023-05-24T16:56:09.257Z,55.78
2023-05-24T16:58:26.184Z,55.31
2023-05-24T17:00:43.286Z,55.11
2023-05-24T17:03:00.416Z,55.01
2023-05-24T17:05:17.544Z,56.76
2023-05-24T17:07:34.463Z,56.80
2023-05-24T17:09:51.897Z,56.99
2023-05-24T17:12:08.867Z,57.42
2023-05-24T17:14:25.855Z,55.83
2023-05-24T17:16:42.843Z,57.07
2023-05-24T17:18:59.849Z,56.32
2023-05-24T17:21:16.745Z,57.33
2023-05-24T17:23:33.720Z,58.00
2023-05-24T17:25:50.660Z,57.40
2023-05-24T17:28:07.554Z,58.47
2023-05-24T17:30:24.489Z,57.96
2023-05-24T17:32:41.467Z,58.05
2023-05-24T17:34:58.406Z,58.38
2023-05-24T17:37:15.348Z,57.44
2023-05-24T17:39:32.300Z,59.02
2023-05-24T17:41:49.263Z,60.35
2023-05-24T17:44:06.202Z,60.45
2023-05-24T17:46:23.175Z,61.42
2023-05-24T17:48:40.109Z,61.54
2023-05-24T17:50:58.445Z,61.01
2023-05-24T17:53:30.444Z,60.84
2023-05-24T17:55:48.383Z,61.96
2023-05-24T17:58:05.766Z,59.46
2023-05-24T18:00:22.716Z,59.52
2023-05-24T18:02:39.725Z,60.87
2023-05-24T18:04:56.845Z,59.86
2023-05-24T18:07:13.789Z,59.37
2023-05-24T18:09:30.750Z,59.12
2023-05-24T18:11:47.682Z,60.99
2023-05-24T18:14:04.636Z,61.33
2023-05-24T18:16:21.603Z,60.18
2023-05-24T18:18:38.581Z,60.55
2023-05-24T18:20:55.518Z,61.43
2023-05-24T18:23:12.430Z,61.97
2023-05-24T18:25:29.341Z,64.07
2023-05-24T18:27:46.233Z,63.65
2023-05-24T18:30:03.190Z,64.05
2023-05-24T18:32:20.254Z,62.28
2023-05-24T18:34:37.142Z,62.65
2023-05-24T18:36:54.128Z,62.73
2023-05-24T18:39:11.509Z,64.44
2023-05-24T18:41:28.410Z,64.87
2023-05-24T18:43:45.323Z,64.83
2023-05-24T18:46:02.273Z,64.21
2023-05-24T18:48:19.184Z,65.72
2023-05-24T18:50:36.090Z,65.23
2023-05-24T18:52:52.970Z,66.64
2023-05-24T18:55:09.895Z,66.23
2023-05-24T18:57:26.794Z,66.87
2023-05-24T18:59:43.684Z,66.74
2023-05-24T19:02:00.667Z,67.17
2023-05-24T19:04:17.688Z,67.08
2023-05-24T19:06:34.624Z,67.38
2023-05-24T19:08:52.069Z,67.38
2023-05-24T19:11:09.022Z,67.68
2023-05-24T19:13:25.984Z,68.31
2023-05-24T19:15:43.184Z,68.88
2023-05-24T19:18:00.503Z,69.23
2023-05-24T19:20:17.854Z,69.65
2023-05-24T19:22:35.134Z,69.59
2023-05-24T19:24:52.065Z,69.52
2023-05-24T19:27:09.001Z,69.81
2023-05-24T19:29:25.932Z,70.31
2023-05-24T19:31:42.919Z,70.55
2023-05-24T19:34:01.178Z,70.75
2023-05-24T19:36:18.273Z,70.87
2023-05-24T19:38:35.179Z,71.09
2023-05-24T19:40:52.503Z,72.18
2023-05-24T19:43:09.458Z,71.78
2023-05-24T19:45:26.435Z,71.84
2023-05-24T19:47:43.360Z,72.25
2023-05-24T19:50:00.329Z,71.99
2023-05-24T19:52:17.271Z,73.06
2023-05-24T19:54:34.217Z,72.83
2023-05-24T19:56:51.199Z,72.98
2023-05-24T19:59:08.147Z,73.39
2023-05-24T20:01:25.080Z,73.28
2023-05-24T20:03:42.027Z,72.51
2023-05-24T20:05:59.019Z,72.94
2023-05-24T20:08:15.972Z,73.68
2023-05-24T20:10:32.916Z,73.74
2023-05-24T20:12:49.857Z,73.54
2023-05-24T20:15:06.791Z,72.95
2023-05-24T20:17:23.808Z,72.79
2023-05-24T20:19:40.804Z,73.45
2023-05-24T20:21:57.761Z,73.35
2023-05-24T20:24:14.699Z,73.19
2023-05-24T20:26:31.702Z,74.57
2023-05-24T20:28:48.647Z,73.34
2023-05-24T20:31:05.663Z,74.33
2023-05-24T20:33:22.579Z,75.68
2023-05-24T20:35:39.551Z,74.40
2023-05-24T20:37:56.475Z,75.59
2023-05-24T20:40:13.432Z,74.83
2023-05-24T20:42:30.348Z,76.06
2023-05-24T20:44:47.274Z,76.35
2023-05-24T20:47:04.209Z,76.83
2023-05-24T20:49:21.614Z,76.42
2023-05-24T20:51:38.954Z,75.54
2023-05-24T20:53:55.993Z,75.85
2023-05-24T20:56:12.882Z,77.20
2023-05-24T20:58:29.828Z,77.53
2023-05-24T21:00:46.791Z,76.25
2023-05-24T21:03:04.553Z,77.41
2023-05-24T21:05:21.658Z,76.97
2023-05-24T21:07:38.565Z,76.04
2023-05-24T21:09:55.503Z,76.11
2023-05-24T21:12:12.439Z,76.99
2023-05-24T21:14:31.387Z,78.15
2023-05-24T21:16:48.856Z,77.90
2023-05-24T21:19:05.829Z,76.66
2023-05-24T21:21:22.741Z,76.95
2023-05-24T21:23:39.747Z,76.89
2023-05-24T21:25:56.769Z,76.95
2023-05-24T21:28:13.670Z,78.01
2023-05-24T21:30:30.714Z,77.51
2023-05-24T21:32:47.715Z,78.11
2023-05-24T21:35:05.222Z,78.33
2023-05-24T21:37:22.145Z,78.85
2023-05-24T21:39:39.079Z,78.62
2023-05-24T21:41:55.991Z,79.61
2023-05-24T21:44:12.897Z,78.73
2023-05-24T21:46:29.869Z,79.45
2023-05-24T21:48:46.830Z,79.51
2023-05-24T21:51:03.733Z,79.66
2023-05-24T21:53:20.681Z,79.78
2023-05-24T21:55:37.691Z,79.47
2023-05-24T21:57:54.643Z,80.49
2023-05-24T22:00:13.604Z,79.77
2023-05-24T22:02:30.544Z,79.40
2023-05-24T22:04:48.063Z,80.34
2023-05-24T22:07:07.119Z,79.06
2023-05-24T22:09:26.172Z,79.63
2023-05-24T22:11:43.179Z,79.38
2023-05-24T22:14:00.140Z,78.42
2023-05-24T22:16:17.158Z,79.07
2023-05-24T22:18:34.101Z,79.06
2023-05-24T22:20:51.586Z,78.98
2023-05-24T22:23:08.782Z,79.13
2023-05-24T22:25:33.016Z,78.74
2023-05-24T22:27:52.217Z,78.44
2023-05-24T22:30:09.127Z,78.89
2023-05-24T22:32:26.136Z,79.92
2023-05-24T22:34:43.123Z,80.01
2023-05-24T22:37:07.261Z,80.08
2023-05-24T22:39:25.265Z,80.03
2023-05-24T22:41:42.114Z,80.48
2023-05-24T22:43:59.737Z,80.53
2023-05-24T22:46:16.706Z,79.29
2023-05-24T22:48:33.937Z,79.53
2023-05-24T22:50:50.897Z,79.58
2023-05-24T22:53:07.921Z,79.78
2023-05-24T22:55:24.816Z,79.52
2023-05-24T22:57:42.120Z,79.11
2023-05-24T22:59:59.033Z,79.65
2023-05-24T23:02:18.528Z,79.64
2023-05-24T23:04:35.488Z,79.85
2023-05-24T23:06:53.430Z,80.64
2023-05-24T23:09:11.596Z,80.17
2023-05-24T23:11:28.587Z,80.41
2023-05-24T23:13:45.538Z,81.00
2023-05-24T23:16:02.489Z,81.34
2023-05-24T23:18:20.470Z,80.29
2023-05-24T23:20:37.416Z,80.48
2023-05-24T23:22:54.307Z,81.56
2023-05-24T23:25:11.226Z,80.84
2023-05-24T23:27:28.164Z,79.98
2023-05-24T23:29:45.154Z,81.45
2023-05-24T23:32:02.046Z,81.59
2023-05-24T23:34:18.955Z,80.90
2023-05-24T23:36:36.358Z,80.46
2023-05-24T23:41:24.250Z,81.03
2023-05-24T23:43:41.256Z,80.67
2023-05-24T23:45:58.203Z,80.03
2023-05-24T23:48:17.835Z,80.27
2023-05-24T23:50:42.861Z,80.34
2023-05-24T23:53:07.339Z,80.72
2023-05-24T23:55:24.275Z,80.35
2023-05-24T23:57:41.211Z,80.63
